EAG737T EDLW-LRCL
Flight info
| Callsign | EAG737T |
|---|---|
| Flight time | 1h 57m |
| Altitude | 19000 |
| Route | NUDGO2U NUDGO Z858 ESADU P12 WRB/N0457F370 DCT NOMKA DCT SUVUT L620 EKPEK DCT PIKIB DCT OMELO DCT ODLIV DCT OMIFU DCT PITOK DCT PERIT DCT BADOR DCT LARMU |
| Aircraft | B738/M-SDE2E3FGHIRWXY/LB1 |
Departure
| Time | 2026-04-23 10:34 |
|---|---|
| Airport | Dortmund Airport (EDLW) |
Arrival
| Time | 2026-04-23 12:32 |
|---|---|
| Airport | Avram Iancu Cluj International Airport (LRCL) |
| Time | Latitude | Longitude | Altitude | Speed | Heading |
|---|---|---|---|---|---|
| 2026-04-23 10:25 | 51.51603 | 7.61351 | 462 ft | 0 kts | 330° |
| 2026-04-23 10:30 | 51.51625 | 7.61331 | 464 ft | 15 kts | 331° |
| 2026-04-23 10:31 | 51.51719 | 7.61394 | 465 ft | 17 kts | 74° |
| 2026-04-23 10:31 | 51.51768 | 7.61564 | 465 ft | 17 kts | 56° |
| 2026-04-23 10:31 | 51.51819 | 7.61724 | 463 ft | 16 kts | 65° |
| 2026-04-23 10:31 | 51.51870 | 7.61879 | 464 ft | 15 kts | 59° |
| 2026-04-23 10:32 | 51.51923 | 7.62027 | 465 ft | 17 kts | 60° |
| 2026-04-23 10:32 | 51.51988 | 7.62210 | 458 ft | 22 kts | 60° |
| 2026-04-23 10:32 | 51.52072 | 7.62446 | 447 ft | 25 kts | 59° |
| 2026-04-23 10:32 | 51.52162 | 7.62671 | 443 ft | 23 kts | 55° |
| 2026-04-23 10:33 | 51.52257 | 7.62767 | 450 ft | 14 kts | 343° |
| 2026-04-23 10:33 | 51.52336 | 7.62684 | 456 ft | 13 kts | 303° |
| 2026-04-23 10:33 | 51.52313 | 7.62555 | 457 ft | 13 kts | 226° |
| 2026-04-23 10:33 | 51.52259 | 7.62431 | 458 ft | 23 kts | 240° |
| 2026-04-23 10:34 | 51.52027 | 7.61766 | 457 ft | 112 kts | 241° |
| 2026-04-23 10:34 | 51.51528 | 7.60342 | 572 ft | 173 kts | 240° |
| 2026-04-23 10:34 | 51.50907 | 7.58660 | 1419 ft | 185 kts | 240° |
| 2026-04-23 10:34 | 51.50203 | 7.56658 | 1793 ft | 221 kts | 241° |
| 2026-04-23 10:35 | 51.49427 | 7.54420 | 2400 ft | 233 kts | 241° |
| 2026-04-23 10:35 | 51.48618 | 7.52128 | 3067 ft | 237 kts | 240° |
| 2026-04-23 10:35 | 51.47805 | 7.49843 | 3690 ft | 239 kts | 240° |
| 2026-04-23 10:35 | 51.46699 | 7.47825 | 4075 ft | 252 kts | 212° |
| 2026-04-23 10:36 | 51.44978 | 7.47005 | 4214 ft | 271 kts | 179° |
| 2026-04-23 10:36 | 51.43168 | 7.47944 | 4765 ft | 279 kts | 148° |
| 2026-04-23 10:36 | 51.41500 | 7.49658 | 5479 ft | 290 kts | 148° |
| 2026-04-23 10:36 | 51.39913 | 7.51689 | 6268 ft | 297 kts | 128° |
| 2026-04-23 10:37 | 51.39007 | 7.54662 | 7154 ft | 299 kts | 103° |
| 2026-04-23 10:37 | 51.38853 | 7.57957 | 8009 ft | 302 kts | 87° |
| 2026-04-23 10:37 | 51.38992 | 7.61337 | 8799 ft | 307 kts | 85° |
| 2026-04-23 10:37 | 51.39179 | 7.64767 | 9538 ft | 312 kts | 85° |
| 2026-04-23 10:38 | 51.39370 | 7.68225 | 9907 ft | 313 kts | 85° |
| 2026-04-23 10:38 | 51.39555 | 7.71707 | 9991 ft | 314 kts | 85° |
| 2026-04-23 10:38 | 51.39728 | 7.75190 | 10004 ft | 314 kts | 85° |
| 2026-04-23 10:38 | 51.39895 | 7.78686 | 10013 ft | 315 kts | 85° |
| 2026-04-23 10:39 | 51.40060 | 7.82179 | 10007 ft | 315 kts | 85° |
| 2026-04-23 10:39 | 51.40221 | 7.85684 | 10010 ft | 316 kts | 86° |
| 2026-04-23 10:39 | 51.40380 | 7.89203 | 10024 ft | 317 kts | 86° |
| 2026-04-23 10:39 | 51.40538 | 7.92735 | 10005 ft | 317 kts | 86° |
| 2026-04-23 10:40 | 51.40693 | 7.96262 | 10007 ft | 317 kts | 86° |
| 2026-04-23 10:40 | 51.40846 | 7.99732 | 10012 ft | 316 kts | 86° |
| 2026-04-23 10:40 | 51.40998 | 8.03245 | 9998 ft | 316 kts | 86° |
| 2026-04-23 10:40 | 51.41151 | 8.06757 | 10015 ft | 315 kts | 86° |
| 2026-04-23 10:41 | 51.41303 | 8.10288 | 10220 ft | 321 kts | 86° |
| 2026-04-23 10:41 | 51.41455 | 8.13865 | 11048 ft | 321 kts | 86° |
| 2026-04-23 10:41 | 51.41605 | 8.17436 | 11919 ft | 322 kts | 86° |
| 2026-04-23 10:41 | 51.41666 | 8.21040 | 12660 ft | 325 kts | 90° |
| 2026-04-23 10:42 | 51.41628 | 8.24695 | 13377 ft | 330 kts | 91° |
| 2026-04-23 10:42 | 51.41571 | 8.28389 | 14098 ft | 333 kts | 91° |
| 2026-04-23 10:42 | 51.41519 | 8.32124 | 14799 ft | 337 kts | 91° |
| 2026-04-23 10:42 | 51.41478 | 8.35904 | 15485 ft | 340 kts | 91° |
| 2026-04-23 10:43 | 51.41441 | 8.39671 | 16140 ft | 344 kts | 91° |
| 2026-04-23 10:43 | 51.41405 | 8.43524 | 16796 ft | 347 kts | 91° |
| 2026-04-23 10:43 | 51.41363 | 8.47427 | 17442 ft | 351 kts | 91° |
| 2026-04-23 10:43 | 51.41317 | 8.51347 | 18068 ft | 354 kts | 91° |
| 2026-04-23 10:44 | 51.41267 | 8.55316 | 18677 ft | 358 kts | 91° |
| 2026-04-23 10:44 | 51.41217 | 8.59323 | 18992 ft | 359 kts | 91° |
| 2026-04-23 10:44 | 51.41166 | 8.63318 | 18996 ft | 359 kts | 91° |
| 2026-04-23 10:44 | 51.41114 | 8.67324 | 19010 ft | 361 kts | 91° |
| 2026-04-23 10:45 | 51.41061 | 8.71360 | 19012 ft | 361 kts | 90° |
| 2026-04-23 10:45 | 51.41263 | 8.75314 | 19007 ft | 361 kts | 79° |
| 2026-04-23 10:45 | 51.41909 | 8.79192 | 19005 ft | 361 kts | 69° |
| 2026-04-23 10:45 | 51.42885 | 8.82896 | 19014 ft | 361 kts | 66° |
| 2026-04-23 10:46 | 51.43917 | 8.86585 | 19022 ft | 369 kts | 65° |
| 2026-04-23 10:46 | 51.45002 | 8.90449 | 19031 ft | 390 kts | 66° |
| 2026-04-23 10:46 | 51.46129 | 8.94523 | 19027 ft | 409 kts | 66° |
| 2026-04-23 10:46 | 51.47289 | 8.98781 | 19026 ft | 425 kts | 66° |
| 2026-04-23 10:47 | 51.48468 | 9.03147 | 19013 ft | 426 kts | 66° |
| 2026-04-23 10:47 | 51.49584 | 9.07566 | 19002 ft | 428 kts | 72° |
| 2026-04-23 10:47 | 51.50267 | 9.12200 | 19000 ft | 427 kts | 81° |
| 2026-04-23 10:47 | 51.50483 | 9.16955 | 18995 ft | 427 kts | 91° |
| 2026-04-23 10:48 | 51.50328 | 9.21718 | 19010 ft | 426 kts | 94° |
| 2026-04-23 10:48 | 51.50124 | 9.26465 | 19003 ft | 426 kts | 94° |
| 2026-04-23 10:48 | 51.49912 | 9.31212 | 19000 ft | 426 kts | 94° |
| 2026-04-23 10:48 | 51.49707 | 9.35953 | 19004 ft | 426 kts | 94° |
| 2026-04-23 10:49 | 51.49509 | 9.40708 | 19002 ft | 426 kts | 94° |
| 2026-04-23 10:49 | 51.49317 | 9.45448 | 19007 ft | 426 kts | 94° |
| 2026-04-23 10:49 | 51.49131 | 9.50144 | 19005 ft | 426 kts | 94° |
| 2026-04-23 10:49 | 51.48944 | 9.54890 | 19008 ft | 426 kts | 94° |
| 2026-04-23 10:50 | 51.48756 | 9.59629 | 19007 ft | 426 kts | 94° |
| 2026-04-23 10:50 | 51.48567 | 9.64370 | 19009 ft | 425 kts | 94° |
| 2026-04-23 10:50 | 51.48376 | 9.69118 | 19006 ft | 425 kts | 94° |
| 2026-04-23 10:50 | 51.48183 | 9.73851 | 19009 ft | 424 kts | 94° |
| 2026-04-23 10:51 | 51.47988 | 9.78577 | 19004 ft | 424 kts | 94° |
| 2026-04-23 10:51 | 51.47791 | 9.83294 | 19008 ft | 424 kts | 94° |
| 2026-04-23 10:51 | 51.47596 | 9.87946 | 19007 ft | 423 kts | 94° |
| 2026-04-23 10:51 | 51.47395 | 9.92661 | 19010 ft | 422 kts | 94° |
| 2026-04-23 10:52 | 51.47194 | 9.97358 | 19005 ft | 422 kts | 94° |
| 2026-04-23 10:52 | 51.46991 | 10.02041 | 19008 ft | 421 kts | 94° |
| 2026-04-23 10:52 | 51.46787 | 10.06727 | 19005 ft | 421 kts | 94° |
| 2026-04-23 10:52 | 51.46580 | 10.11405 | 19009 ft | 421 kts | 94° |
| 2026-04-23 10:53 | 51.46372 | 10.16090 | 19005 ft | 420 kts | 94° |
| 2026-04-23 10:53 | 51.46163 | 10.20760 | 19009 ft | 420 kts | 94° |
| 2026-04-23 10:53 | 51.45951 | 10.25431 | 19007 ft | 420 kts | 94° |
| 2026-04-23 10:53 | 51.45738 | 10.30100 | 19010 ft | 420 kts | 94° |
| 2026-04-23 10:54 | 51.45523 | 10.34767 | 19006 ft | 420 kts | 94° |
| 2026-04-23 10:54 | 51.45307 | 10.39445 | 19009 ft | 421 kts | 94° |
| 2026-04-23 10:54 | 51.45088 | 10.44125 | 19004 ft | 421 kts | 94° |
| 2026-04-23 10:54 | 51.44863 | 10.48805 | 19012 ft | 421 kts | 95° |
| 2026-04-23 10:55 | 51.44411 | 10.53422 | 19005 ft | 422 kts | 103° |
| 2026-04-23 10:55 | 51.43706 | 10.57945 | 19016 ft | 422 kts | 104° |
| 2026-04-23 10:55 | 51.42954 | 10.62491 | 19015 ft | 422 kts | 105° |
| 2026-04-23 10:55 | 51.42196 | 10.67030 | 19009 ft | 423 kts | 105° |
| 2026-04-23 10:56 | 51.41443 | 10.71583 | 19007 ft | 423 kts | 105° |
| 2026-04-23 10:56 | 51.40698 | 10.76146 | 19004 ft | 423 kts | 104° |
| 2026-04-23 10:56 | 51.40199 | 10.79229 | 19007 ft | 422 kts | 104° |
| 2026-04-23 10:56 | 51.39466 | 10.83782 | 19008 ft | 422 kts | 104° |
| 2026-04-23 10:57 | 51.38734 | 10.88338 | 19007 ft | 421 kts | 104° |
| 2026-04-23 10:57 | 51.38015 | 10.92813 | 19000 ft | 420 kts | 104° |
| 2026-04-23 10:57 | 51.37286 | 10.97335 | 19000 ft | 419 kts | 104° |
| 2026-04-23 10:57 | 51.36557 | 11.01849 | 19010 ft | 419 kts | 104° |
| 2026-04-23 10:58 | 51.35826 | 11.06360 | 19005 ft | 418 kts | 104° |
| 2026-04-23 10:58 | 51.35095 | 11.10857 | 19008 ft | 417 kts | 104° |
| 2026-04-23 10:58 | 51.34364 | 11.15345 | 19005 ft | 417 kts | 104° |
| 2026-04-23 10:58 | 51.33629 | 11.19842 | 19008 ft | 417 kts | 104° |
| 2026-04-23 10:59 | 51.32894 | 11.24328 | 19008 ft | 417 kts | 105° |
| 2026-04-23 10:59 | 51.32154 | 11.28828 | 19007 ft | 418 kts | 105° |
| 2026-04-23 10:59 | 51.31424 | 11.33262 | 19006 ft | 418 kts | 105° |
| 2026-04-23 10:59 | 51.30683 | 11.37757 | 19009 ft | 418 kts | 105° |
| 2026-04-23 11:00 | 51.29939 | 11.42248 | 19010 ft | 418 kts | 105° |
| 2026-04-23 11:00 | 51.29192 | 11.46741 | 19006 ft | 418 kts | 105° |
| 2026-04-23 11:00 | 51.28159 | 11.52730 | 19003 ft | 419 kts | 105° |
| 2026-04-23 11:00 | 51.27638 | 11.55699 | 19006 ft | 419 kts | 105° |
| 2026-04-23 11:01 | 51.26868 | 11.60200 | 19011 ft | 419 kts | 105° |
| 2026-04-23 11:01 | 51.26121 | 11.64689 | 19008 ft | 419 kts | 105° |
| 2026-04-23 11:01 | 51.25377 | 11.69185 | 19007 ft | 419 kts | 105° |
| 2026-04-23 11:01 | 51.24630 | 11.73690 | 19002 ft | 419 kts | 105° |
| 2026-04-23 11:02 | 51.23880 | 11.78192 | 19003 ft | 419 kts | 105° |
| 2026-04-23 11:02 | 51.23126 | 11.82689 | 19012 ft | 419 kts | 105° |
| 2026-04-23 11:02 | 51.22372 | 11.87176 | 19005 ft | 419 kts | 105° |
| 2026-04-23 11:02 | 51.21623 | 11.91608 | 19004 ft | 419 kts | 105° |
| 2026-04-23 11:03 | 51.20863 | 11.96091 | 19006 ft | 418 kts | 105° |
| 2026-04-23 11:03 | 51.20093 | 12.00572 | 19007 ft | 418 kts | 105° |
| 2026-04-23 11:03 | 51.19319 | 12.05042 | 19006 ft | 418 kts | 105° |
| 2026-04-23 11:03 | 51.18543 | 12.09515 | 19007 ft | 418 kts | 105° |
| 2026-04-23 11:04 | 51.17768 | 12.13986 | 19007 ft | 418 kts | 105° |
| 2026-04-23 11:04 | 51.16993 | 12.18450 | 19011 ft | 418 kts | 105° |
| 2026-04-23 11:04 | 51.16214 | 12.22918 | 19013 ft | 418 kts | 105° |
| 2026-04-23 11:04 | 51.15431 | 12.27386 | 19005 ft | 418 kts | 105° |
| 2026-04-23 11:05 | 51.14647 | 12.31846 | 19006 ft | 418 kts | 105° |
| 2026-04-23 11:05 | 51.13858 | 12.36317 | 19009 ft | 418 kts | 105° |
| 2026-04-23 11:05 | 51.13078 | 12.40727 | 19560 ft | 418 kts | 104° |
| 2026-04-23 11:05 | 51.12299 | 12.45098 | 19464 ft | 402 kts | 102° |
| 2026-04-23 11:06 | 51.10819 | 12.53465 | 19336 ft | 392 kts | 102° |
| 2026-04-23 11:06 | 51.10074 | 12.57666 | 19308 ft | 396 kts | 102° |
| 2026-04-23 11:06 | 51.09322 | 12.61883 | 19301 ft | 396 kts | 102° |
| 2026-04-23 11:07 | 51.08562 | 12.66096 | 19300 ft | 395 kts | 103° |
| 2026-04-23 11:07 | 51.07799 | 12.70302 | 19306 ft | 395 kts | 103° |
| 2026-04-23 11:07 | 51.07033 | 12.74507 | 19307 ft | 395 kts | 103° |
| 2026-04-23 11:07 | 51.06267 | 12.78712 | 19302 ft | 396 kts | 103° |
| 2026-04-23 11:08 | 51.05498 | 12.82918 | 19299 ft | 396 kts | 103° |
| 2026-04-23 11:08 | 51.04730 | 12.87115 | 19296 ft | 395 kts | 103° |
| 2026-04-23 11:08 | 51.03962 | 12.91306 | 19301 ft | 395 kts | 103° |
| 2026-04-23 11:08 | 51.03205 | 12.95431 | 19300 ft | 395 kts | 103° |
| 2026-04-23 11:09 | 51.02435 | 12.99618 | 19294 ft | 395 kts | 103° |
| 2026-04-23 11:09 | 51.01661 | 13.03810 | 19293 ft | 394 kts | 103° |
| 2026-04-23 11:09 | 51.00890 | 13.07984 | 19294 ft | 394 kts | 103° |
| 2026-04-23 11:09 | 51.00115 | 13.12164 | 19298 ft | 395 kts | 103° |
| 2026-04-23 11:10 | 50.99339 | 13.16348 | 19300 ft | 395 kts | 103° |
| 2026-04-23 11:10 | 50.98563 | 13.20516 | 19287 ft | 395 kts | 103° |
| 2026-04-23 11:10 | 50.97784 | 13.24702 | 19288 ft | 395 kts | 103° |
| 2026-04-23 11:10 | 50.97004 | 13.28875 | 19296 ft | 395 kts | 103° |
| 2026-04-23 11:11 | 50.96223 | 13.33050 | 19273 ft | 396 kts | 103° |
| 2026-04-23 11:11 | 50.95453 | 13.37244 | 19285 ft | 396 kts | 103° |
| 2026-04-23 11:11 | 50.94690 | 13.41449 | 19283 ft | 396 kts | 102° |
| 2026-04-23 11:11 | 50.93928 | 13.45655 | 19269 ft | 396 kts | 102° |
| 2026-04-23 11:12 | 50.93164 | 13.49860 | 19267 ft | 396 kts | 103° |
| 2026-04-23 11:12 | 50.92406 | 13.54010 | 19267 ft | 396 kts | 103° |
| 2026-04-23 11:12 | 50.91637 | 13.58206 | 19267 ft | 397 kts | 103° |
| 2026-04-23 11:12 | 50.90857 | 13.62456 | 19257 ft | 397 kts | 103° |
| 2026-04-23 11:13 | 50.90094 | 13.66601 | 19267 ft | 396 kts | 103° |
| 2026-04-23 11:13 | 50.89320 | 13.70789 | 19266 ft | 396 kts | 103° |
| 2026-04-23 11:13 | 50.88539 | 13.74975 | 19271 ft | 396 kts | 103° |
| 2026-04-23 11:13 | 50.87754 | 13.79157 | 19260 ft | 396 kts | 103° |
| 2026-04-23 11:14 | 50.86965 | 13.83345 | 19260 ft | 396 kts | 103° |
| 2026-04-23 11:14 | 50.86177 | 13.87531 | 19273 ft | 396 kts | 103° |
| 2026-04-23 11:14 | 50.85387 | 13.91719 | 19267 ft | 396 kts | 103° |
| 2026-04-23 11:14 | 50.84597 | 13.95892 | 19269 ft | 396 kts | 103° |
| 2026-04-23 11:15 | 50.83689 | 14.00027 | 19273 ft | 399 kts | 110° |
| 2026-04-23 11:15 | 50.82374 | 14.03912 | 19261 ft | 403 kts | 118° |
| 2026-04-23 11:15 | 50.80854 | 14.07646 | 19267 ft | 404 kts | 119° |
| 2026-04-23 11:15 | 50.79318 | 14.11367 | 19266 ft | 404 kts | 119° |
| 2026-04-23 11:16 | 50.77804 | 14.15035 | 19253 ft | 404 kts | 119° |
| 2026-04-23 11:16 | 50.76267 | 14.18776 | 19017 ft | 405 kts | 118° |
| 2026-04-23 11:16 | 50.74718 | 14.22572 | 19120 ft | 419 kts | 118° |
| 2026-04-23 11:16 | 50.73120 | 14.26499 | 19210 ft | 427 kts | 118° |
| 2026-04-23 11:17 | 50.71518 | 14.30430 | 19246 ft | 424 kts | 118° |
| 2026-04-23 11:17 | 50.69922 | 14.34337 | 19247 ft | 422 kts | 118° |
| 2026-04-23 11:17 | 50.68333 | 14.38227 | 19253 ft | 421 kts | 118° |
| 2026-04-23 11:17 | 50.66747 | 14.42107 | 19268 ft | 421 kts | 118° |
| 2026-04-23 11:18 | 50.65163 | 14.45977 | 19252 ft | 421 kts | 118° |
| 2026-04-23 11:18 | 50.63575 | 14.49852 | 19257 ft | 420 kts | 118° |
| 2026-04-23 11:18 | 50.61986 | 14.53723 | 19252 ft | 421 kts | 118° |
| 2026-04-23 11:18 | 50.60399 | 14.57585 | 19258 ft | 421 kts | 118° |
| 2026-04-23 11:19 | 50.58824 | 14.61410 | 19260 ft | 421 kts | 118° |
| 2026-04-23 11:19 | 50.57229 | 14.65281 | 19247 ft | 422 kts | 118° |
| 2026-04-23 11:19 | 50.55630 | 14.69154 | 19239 ft | 422 kts | 118° |
| 2026-04-23 11:19 | 50.54028 | 14.73026 | 19247 ft | 422 kts | 118° |
| 2026-04-23 11:20 | 50.52432 | 14.76883 | 19247 ft | 421 kts | 118° |
| 2026-04-23 11:20 | 50.50828 | 14.80754 | 19237 ft | 421 kts | 118° |
| 2026-04-23 11:20 | 50.49227 | 14.84608 | 19240 ft | 421 kts | 118° |
| 2026-04-23 11:20 | 50.47624 | 14.88463 | 19253 ft | 420 kts | 118° |
| 2026-04-23 11:21 | 50.46026 | 14.92305 | 19245 ft | 420 kts | 118° |
| 2026-04-23 11:21 | 50.44422 | 14.96158 | 19245 ft | 420 kts | 118° |
| 2026-04-23 11:21 | 50.42824 | 14.99997 | 19245 ft | 420 kts | 118° |
| 2026-04-23 11:21 | 50.41244 | 15.03785 | 19244 ft | 420 kts | 118° |
| 2026-04-23 11:22 | 50.39642 | 15.07621 | 19238 ft | 420 kts | 118° |
| 2026-04-23 11:22 | 50.38041 | 15.11451 | 19236 ft | 420 kts | 118° |
| 2026-04-23 11:22 | 50.36437 | 15.15282 | 19234 ft | 420 kts | 118° |
| 2026-04-23 11:22 | 50.34833 | 15.19105 | 19242 ft | 420 kts | 118° |
| 2026-04-23 11:23 | 50.33231 | 15.22920 | 19317 ft | 417 kts | 119° |
| 2026-04-23 11:23 | 50.31644 | 15.26687 | 19260 ft | 412 kts | 119° |
| 2026-04-23 11:23 | 50.30067 | 15.30429 | 19235 ft | 412 kts | 119° |
| 2026-04-23 11:23 | 50.28484 | 15.34183 | 19228 ft | 414 kts | 119° |
| 2026-04-23 11:24 | 50.26894 | 15.37951 | 19226 ft | 415 kts | 119° |
| 2026-04-23 11:24 | 50.25298 | 15.41726 | 19225 ft | 416 kts | 119° |
| 2026-04-23 11:24 | 50.23703 | 15.45492 | 19217 ft | 416 kts | 119° |
| 2026-04-23 11:24 | 50.22104 | 15.49261 | 19211 ft | 416 kts | 119° |
| 2026-04-23 11:25 | 50.20505 | 15.53025 | 19203 ft | 416 kts | 119° |
| 2026-04-23 11:25 | 50.18903 | 15.56788 | 19198 ft | 415 kts | 119° |
| 2026-04-23 11:25 | 50.17327 | 15.60488 | 19203 ft | 415 kts | 119° |
| 2026-04-23 11:25 | 50.15728 | 15.64236 | 19199 ft | 415 kts | 119° |
| 2026-04-23 11:26 | 50.14126 | 15.67986 | 19197 ft | 415 kts | 119° |
| 2026-04-23 11:26 | 50.12528 | 15.71721 | 19195 ft | 415 kts | 119° |
| 2026-04-23 11:26 | 50.10927 | 15.75459 | 19201 ft | 415 kts | 119° |
| 2026-04-23 11:26 | 50.09315 | 15.79216 | 19187 ft | 415 kts | 119° |
| 2026-04-23 11:27 | 50.07709 | 15.82954 | 19194 ft | 415 kts | 119° |
| 2026-04-23 11:27 | 50.06104 | 15.86687 | 19196 ft | 415 kts | 120° |
| 2026-04-23 11:27 | 50.04494 | 15.90425 | 19190 ft | 415 kts | 120° |
| 2026-04-23 11:27 | 50.02887 | 15.94146 | 19187 ft | 416 kts | 120° |
| 2026-04-23 11:28 | 50.01301 | 15.97903 | 19196 ft | 414 kts | 117° |
| 2026-04-23 11:28 | 49.99875 | 16.01733 | 19202 ft | 413 kts | 115° |
| 2026-04-23 11:28 | 49.98492 | 16.05642 | 19210 ft | 413 kts | 114° |
| 2026-04-23 11:28 | 49.97125 | 16.09576 | 19206 ft | 413 kts | 114° |
| 2026-04-23 11:29 | 49.95760 | 16.13507 | 19208 ft | 413 kts | 114° |
| 2026-04-23 11:29 | 49.94390 | 16.17429 | 19204 ft | 413 kts | 114° |
| 2026-04-23 11:29 | 49.93015 | 16.21339 | 19215 ft | 413 kts | 114° |
| 2026-04-23 11:29 | 49.91631 | 16.25246 | 19209 ft | 413 kts | 115° |
| 2026-04-23 11:30 | 49.90240 | 16.29156 | 19209 ft | 413 kts | 115° |
| 2026-04-23 11:30 | 49.88847 | 16.33056 | 19213 ft | 413 kts | 115° |
| 2026-04-23 11:30 | 49.87472 | 16.36899 | 19215 ft | 413 kts | 115° |
| 2026-04-23 11:30 | 49.86076 | 16.40793 | 19202 ft | 413 kts | 115° |
| 2026-04-23 11:31 | 49.84681 | 16.44677 | 19204 ft | 413 kts | 115° |
| 2026-04-23 11:31 | 49.83277 | 16.48580 | 19206 ft | 413 kts | 115° |
| 2026-04-23 11:31 | 49.81876 | 16.52469 | 19205 ft | 413 kts | 115° |
| 2026-04-23 11:31 | 49.80475 | 16.56353 | 19204 ft | 413 kts | 115° |
| 2026-04-23 11:32 | 49.79071 | 16.60237 | 19212 ft | 413 kts | 115° |
| 2026-04-23 11:32 | 49.77667 | 16.64119 | 19209 ft | 414 kts | 115° |
| 2026-04-23 11:32 | 49.76257 | 16.68010 | 19206 ft | 414 kts | 115° |
| 2026-04-23 11:32 | 49.74849 | 16.71892 | 19199 ft | 414 kts | 115° |
| 2026-04-23 11:33 | 49.73454 | 16.75730 | 19195 ft | 414 kts | 115° |
| 2026-04-23 11:33 | 49.72040 | 16.79616 | 19188 ft | 414 kts | 115° |
| 2026-04-23 11:33 | 49.70624 | 16.83498 | 19190 ft | 415 kts | 115° |
| 2026-04-23 11:33 | 49.69207 | 16.87377 | 19190 ft | 415 kts | 115° |
| 2026-04-23 11:34 | 49.67787 | 16.91260 | 19193 ft | 415 kts | 115° |
| 2026-04-23 11:34 | 49.66360 | 16.95160 | 19193 ft | 415 kts | 115° |
| 2026-04-23 11:34 | 49.64939 | 16.99033 | 19190 ft | 415 kts | 115° |
| 2026-04-23 11:34 | 49.63518 | 17.02905 | 19192 ft | 415 kts | 115° |
| 2026-04-23 11:35 | 49.62106 | 17.06742 | 19193 ft | 415 kts | 115° |
| 2026-04-23 11:35 | 49.60682 | 17.10608 | 19191 ft | 415 kts | 115° |
| 2026-04-23 11:35 | 49.59251 | 17.14484 | 19193 ft | 416 kts | 115° |
| 2026-04-23 11:35 | 49.57822 | 17.18353 | 19185 ft | 416 kts | 116° |
| 2026-04-23 11:36 | 49.56371 | 17.22275 | 19187 ft | 416 kts | 116° |
| 2026-04-23 11:36 | 49.54955 | 17.26095 | 19194 ft | 416 kts | 116° |
| 2026-04-23 11:36 | 49.53517 | 17.29969 | 19187 ft | 416 kts | 116° |
| 2026-04-23 11:36 | 49.52078 | 17.33842 | 19190 ft | 416 kts | 116° |
| 2026-04-23 11:37 | 49.50639 | 17.37709 | 19186 ft | 417 kts | 116° |
| 2026-04-23 11:37 | 49.49197 | 17.41577 | 19188 ft | 417 kts | 116° |
| 2026-04-23 11:37 | 49.47750 | 17.45451 | 19192 ft | 417 kts | 116° |
| 2026-04-23 11:37 | 49.46303 | 17.49320 | 19181 ft | 417 kts | 116° |
| 2026-04-23 11:38 | 49.44871 | 17.53146 | 19188 ft | 417 kts | 116° |
| 2026-04-23 11:38 | 49.43421 | 17.57012 | 19191 ft | 417 kts | 116° |
| 2026-04-23 11:38 | 49.41974 | 17.60867 | 19192 ft | 417 kts | 116° |
| 2026-04-23 11:38 | 49.40522 | 17.64725 | 19185 ft | 417 kts | 116° |
| 2026-04-23 11:39 | 49.39069 | 17.68585 | 19185 ft | 418 kts | 116° |
| 2026-04-23 11:39 | 49.37613 | 17.72445 | 19182 ft | 418 kts | 116° |
| 2026-04-23 11:39 | 49.36151 | 17.76316 | 19179 ft | 418 kts | 116° |
| 2026-04-23 11:39 | 49.34692 | 17.80171 | 19184 ft | 417 kts | 116° |
| 2026-04-23 11:40 | 49.33237 | 17.84011 | 19186 ft | 417 kts | 116° |
| 2026-04-23 11:40 | 49.31775 | 17.87861 | 19179 ft | 417 kts | 116° |
| 2026-04-23 11:40 | 49.30318 | 17.91698 | 19183 ft | 417 kts | 116° |
| 2026-04-23 11:40 | 49.28857 | 17.95535 | 19177 ft | 417 kts | 116° |
| 2026-04-23 11:41 | 49.27397 | 17.99367 | 19178 ft | 416 kts | 116° |
| 2026-04-23 11:41 | 49.25930 | 18.03211 | 19186 ft | 417 kts | 116° |
| 2026-04-23 11:41 | 49.24961 | 18.05745 | 19030 ft | 420 kts | 116° |
| 2026-04-23 11:41 | 49.23469 | 18.09651 | 19087 ft | 426 kts | 116° |
| 2026-04-23 11:42 | 49.21485 | 18.14831 | 19112 ft | 424 kts | 116° |
| 2026-04-23 11:42 | 49.19996 | 18.18705 | 19096 ft | 422 kts | 116° |
| 2026-04-23 11:42 | 49.18509 | 18.22569 | 19110 ft | 421 kts | 116° |
| 2026-04-23 11:42 | 49.17522 | 18.25130 | 19094 ft | 421 kts | 116° |
| 2026-04-23 11:43 | 49.16035 | 18.28988 | 19087 ft | 421 kts | 116° |
| 2026-04-23 11:43 | 49.14547 | 18.32842 | 19094 ft | 421 kts | 116° |
| 2026-04-23 11:43 | 49.13049 | 18.36718 | 19089 ft | 421 kts | 116° |
| 2026-04-23 11:43 | 49.11562 | 18.40559 | 19087 ft | 421 kts | 116° |
| 2026-04-23 11:44 | 49.10073 | 18.44402 | 19099 ft | 421 kts | 116° |
| 2026-04-23 11:44 | 49.08577 | 18.48255 | 19097 ft | 422 kts | 117° |
| 2026-04-23 11:44 | 49.07079 | 18.52111 | 19085 ft | 423 kts | 117° |
| 2026-04-23 11:44 | 49.05595 | 18.55919 | 19089 ft | 423 kts | 117° |
| 2026-04-23 11:45 | 49.04086 | 18.59791 | 19084 ft | 423 kts | 117° |
| 2026-04-23 11:45 | 49.02574 | 18.63660 | 19085 ft | 423 kts | 117° |
| 2026-04-23 11:45 | 49.01074 | 18.67497 | 19085 ft | 422 kts | 117° |
| 2026-04-23 11:45 | 48.99563 | 18.71352 | 19086 ft | 422 kts | 117° |
| 2026-04-23 11:46 | 48.98081 | 18.75132 | 19073 ft | 421 kts | 117° |
| 2026-04-23 11:46 | 48.96575 | 18.78965 | 19081 ft | 420 kts | 117° |
| 2026-04-23 11:46 | 48.95075 | 18.82776 | 19073 ft | 419 kts | 117° |
| 2026-04-23 11:46 | 48.93580 | 18.86572 | 19077 ft | 419 kts | 117° |
| 2026-04-23 11:47 | 48.92083 | 18.90364 | 19071 ft | 418 kts | 117° |
| 2026-04-23 11:47 | 48.90623 | 18.94063 | 19063 ft | 418 kts | 117° |
| 2026-04-23 11:47 | 48.89700 | 18.96392 | 19065 ft | 418 kts | 117° |
| 2026-04-23 11:47 | 48.88200 | 19.00180 | 19055 ft | 419 kts | 117° |
| 2026-04-23 11:48 | 48.86710 | 19.03941 | 19059 ft | 418 kts | 117° |
| 2026-04-23 11:48 | 48.85207 | 19.07727 | 19064 ft | 418 kts | 117° |
| 2026-04-23 11:48 | 48.83701 | 19.11516 | 19053 ft | 419 kts | 117° |
| 2026-04-23 11:48 | 48.82194 | 19.15302 | 19045 ft | 420 kts | 117° |
| 2026-04-23 11:49 | 48.80682 | 19.19095 | 19054 ft | 420 kts | 117° |
| 2026-04-23 11:49 | 48.79167 | 19.22887 | 19050 ft | 420 kts | 117° |
| 2026-04-23 11:49 | 48.77654 | 19.26671 | 19040 ft | 419 kts | 117° |
| 2026-04-23 11:49 | 48.76138 | 19.30457 | 19044 ft | 418 kts | 117° |
| 2026-04-23 11:50 | 48.74629 | 19.34216 | 19035 ft | 418 kts | 117° |
| 2026-04-23 11:50 | 48.73133 | 19.37940 | 19033 ft | 418 kts | 117° |
| 2026-04-23 11:50 | 48.71620 | 19.41704 | 19027 ft | 419 kts | 117° |
| 2026-04-23 11:50 | 48.70097 | 19.45486 | 19007 ft | 419 kts | 117° |
| 2026-04-23 11:51 | 48.68583 | 19.49240 | 19017 ft | 419 kts | 117° |
| 2026-04-23 11:51 | 48.67063 | 19.53003 | 19015 ft | 419 kts | 117° |
| 2026-04-23 11:51 | 48.65538 | 19.56776 | 19012 ft | 420 kts | 117° |
| 2026-04-23 11:51 | 48.64011 | 19.60548 | 19014 ft | 420 kts | 117° |
| 2026-04-23 11:52 | 48.62483 | 19.64314 | 19005 ft | 420 kts | 117° |
| 2026-04-23 11:52 | 48.60973 | 19.68032 | 19008 ft | 420 kts | 117° |
| 2026-04-23 11:52 | 48.59445 | 19.71789 | 18999 ft | 421 kts | 117° |
| 2026-04-23 11:52 | 48.57910 | 19.75556 | 19003 ft | 421 kts | 117° |
| 2026-04-23 11:53 | 48.56372 | 19.79327 | 18992 ft | 421 kts | 117° |
| 2026-04-23 11:53 | 48.54835 | 19.83088 | 19002 ft | 420 kts | 117° |
| 2026-04-23 11:53 | 48.53296 | 19.86852 | 18996 ft | 421 kts | 117° |
| 2026-04-23 11:53 | 48.51761 | 19.90601 | 18980 ft | 420 kts | 117° |
| 2026-04-23 11:54 | 48.50221 | 19.94357 | 18998 ft | 420 kts | 118° |
| 2026-04-23 11:54 | 48.48682 | 19.98103 | 18986 ft | 421 kts | 117° |
| 2026-04-23 11:54 | 48.47138 | 20.01857 | 18991 ft | 421 kts | 117° |
| 2026-04-23 11:54 | 48.45593 | 20.05608 | 18992 ft | 421 kts | 117° |
| 2026-04-23 11:55 | 48.44047 | 20.09356 | 18979 ft | 421 kts | 117° |
| 2026-04-23 11:55 | 48.42521 | 20.13052 | 18984 ft | 421 kts | 117° |
| 2026-04-23 11:55 | 48.40969 | 20.16804 | 18981 ft | 421 kts | 117° |
| 2026-04-23 11:55 | 48.39418 | 20.20550 | 18981 ft | 421 kts | 117° |
| 2026-04-23 11:56 | 48.37869 | 20.24286 | 18988 ft | 421 kts | 117° |
| 2026-04-23 11:56 | 48.36318 | 20.28023 | 18981 ft | 421 kts | 117° |
| 2026-04-23 11:56 | 48.34764 | 20.31762 | 18976 ft | 421 kts | 117° |
| 2026-04-23 11:56 | 48.33210 | 20.35495 | 18972 ft | 421 kts | 117° |
| 2026-04-23 11:57 | 48.31653 | 20.39222 | 18976 ft | 421 kts | 118° |
| 2026-04-23 11:57 | 48.30089 | 20.42946 | 18984 ft | 421 kts | 118° |
| 2026-04-23 11:57 | 48.28517 | 20.46675 | 18979 ft | 422 kts | 118° |
| 2026-04-23 11:57 | 48.26951 | 20.50388 | 18974 ft | 422 kts | 118° |
| 2026-04-23 11:58 | 48.25380 | 20.54107 | 18977 ft | 422 kts | 118° |
| 2026-04-23 11:58 | 48.23806 | 20.57833 | 18973 ft | 422 kts | 118° |
| 2026-04-23 11:58 | 48.22237 | 20.61541 | 18973 ft | 421 kts | 118° |
| 2026-04-23 11:58 | 48.20685 | 20.65205 | 18977 ft | 421 kts | 118° |
| 2026-04-23 11:59 | 48.19115 | 20.68907 | 18963 ft | 421 kts | 118° |
| 2026-04-23 11:59 | 48.17542 | 20.72612 | 18982 ft | 421 kts | 118° |
| 2026-04-23 11:59 | 48.15967 | 20.76315 | 18981 ft | 421 kts | 118° |
| 2026-04-23 11:59 | 48.14391 | 20.80016 | 18965 ft | 421 kts | 118° |
| 2026-04-23 12:00 | 48.12813 | 20.83718 | 18975 ft | 421 kts | 118° |
| 2026-04-23 12:00 | 48.11238 | 20.87407 | 18964 ft | 421 kts | 118° |
| 2026-04-23 12:00 | 48.09658 | 20.91101 | 18971 ft | 420 kts | 118° |
| 2026-04-23 12:00 | 48.08081 | 20.94785 | 18970 ft | 420 kts | 118° |
| 2026-04-23 12:01 | 48.06523 | 20.98418 | 18976 ft | 421 kts | 118° |
| 2026-04-23 12:01 | 48.04942 | 21.02101 | 18978 ft | 421 kts | 118° |
| 2026-04-23 12:01 | 48.03362 | 21.05779 | 18983 ft | 421 kts | 118° |
| 2026-04-23 12:01 | 48.01781 | 21.09452 | 18988 ft | 421 kts | 118° |
| 2026-04-23 12:02 | 48.00188 | 21.13147 | 18985 ft | 422 kts | 118° |
| 2026-04-23 12:02 | 47.98598 | 21.16831 | 18983 ft | 422 kts | 118° |
| 2026-04-23 12:02 | 47.97004 | 21.20519 | 18989 ft | 422 kts | 118° |
| 2026-04-23 12:02 | 47.95408 | 21.24207 | 18993 ft | 423 kts | 118° |
| 2026-04-23 12:03 | 47.93814 | 21.27886 | 18990 ft | 423 kts | 118° |
| 2026-04-23 12:03 | 47.92235 | 21.31524 | 18986 ft | 423 kts | 118° |
| 2026-04-23 12:03 | 47.90631 | 21.35215 | 18991 ft | 423 kts | 118° |
| 2026-04-23 12:03 | 47.89029 | 21.38897 | 18987 ft | 423 kts | 118° |
| 2026-04-23 12:04 | 47.87430 | 21.42568 | 18992 ft | 422 kts | 118° |
| 2026-04-23 12:04 | 47.85830 | 21.46234 | 18987 ft | 422 kts | 118° |
| 2026-04-23 12:04 | 47.84225 | 21.49910 | 18994 ft | 422 kts | 118° |
| 2026-04-23 12:04 | 47.82623 | 21.53575 | 18990 ft | 422 kts | 118° |
| 2026-04-23 12:05 | 47.81018 | 21.57240 | 18994 ft | 422 kts | 118° |
| 2026-04-23 12:05 | 47.79414 | 21.60897 | 18975 ft | 423 kts | 118° |
| 2026-04-23 12:05 | 47.77808 | 21.64556 | 18974 ft | 423 kts | 118° |
| 2026-04-23 12:05 | 47.76201 | 21.68220 | 18979 ft | 423 kts | 118° |
| 2026-04-23 12:06 | 47.74617 | 21.71832 | 18977 ft | 423 kts | 118° |
| 2026-04-23 12:06 | 47.73010 | 21.75491 | 18979 ft | 423 kts | 118° |
| 2026-04-23 12:06 | 47.69789 | 21.82813 | 18990 ft | 423 kts | 118° |
| 2026-04-23 12:07 | 47.68180 | 21.86462 | 18987 ft | 423 kts | 118° |
| 2026-04-23 12:07 | 47.66572 | 21.90106 | 18994 ft | 423 kts | 118° |
| 2026-04-23 12:07 | 47.64952 | 21.93770 | 18988 ft | 423 kts | 118° |
| 2026-04-23 12:07 | 47.63329 | 21.97438 | 18986 ft | 424 kts | 118° |
| 2026-04-23 12:08 | 47.61714 | 22.01085 | 18989 ft | 424 kts | 118° |
| 2026-04-23 12:08 | 47.60096 | 22.04734 | 18985 ft | 424 kts | 118° |
| 2026-04-23 12:08 | 47.58475 | 22.08381 | 18983 ft | 424 kts | 118° |
| 2026-04-23 12:08 | 47.56925 | 22.12080 | 18978 ft | 420 kts | 112° |
| 2026-04-23 12:09 | 47.55679 | 22.15905 | 18988 ft | 417 kts | 109° |
| 2026-04-23 12:09 | 47.54487 | 22.19816 | 18982 ft | 417 kts | 108° |
| 2026-04-23 12:09 | 47.53309 | 22.23736 | 18980 ft | 417 kts | 108° |
| 2026-04-23 12:09 | 47.52142 | 22.27593 | 18967 ft | 403 kts | 108° |
| 2026-04-23 12:10 | 47.51006 | 22.31294 | 18955 ft | 386 kts | 108° |
| 2026-04-23 12:10 | 47.49908 | 22.34836 | 18870 ft | 371 kts | 108° |
| 2026-04-23 12:10 | 47.48849 | 22.38240 | 18796 ft | 358 kts | 108° |
| 2026-04-23 12:10 | 47.47827 | 22.41514 | 18723 ft | 346 kts | 108° |
| 2026-04-23 12:11 | 47.46829 | 22.44707 | 18650 ft | 335 kts | 108° |
| 2026-04-23 12:11 | 47.45869 | 22.47777 | 18592 ft | 324 kts | 107° |
| 2026-04-23 12:11 | 47.44937 | 22.50751 | 18523 ft | 314 kts | 107° |
| 2026-04-23 12:11 | 47.44033 | 22.53635 | 18378 ft | 307 kts | 107° |
| 2026-04-23 12:12 | 47.43141 | 22.56486 | 18075 ft | 305 kts | 107° |
| 2026-04-23 12:12 | 47.42249 | 22.59337 | 17720 ft | 306 kts | 107° |
| 2026-04-23 12:12 | 47.41360 | 22.62173 | 17408 ft | 304 kts | 107° |
| 2026-04-23 12:12 | 47.40481 | 22.64967 | 17110 ft | 303 kts | 107° |
| 2026-04-23 12:13 | 47.39590 | 22.67794 | 16788 ft | 302 kts | 107° |
| 2026-04-23 12:13 | 47.38703 | 22.70604 | 16464 ft | 301 kts | 107° |
| 2026-04-23 12:13 | 47.37818 | 22.73402 | 16173 ft | 300 kts | 107° |
| 2026-04-23 12:13 | 47.36938 | 22.76184 | 15886 ft | 299 kts | 108° |
| 2026-04-23 12:14 | 47.36059 | 22.78958 | 15580 ft | 298 kts | 108° |
| 2026-04-23 12:14 | 47.35182 | 22.81722 | 15286 ft | 297 kts | 108° |
| 2026-04-23 12:14 | 47.34305 | 22.84480 | 15002 ft | 296 kts | 108° |
| 2026-04-23 12:14 | 47.33436 | 22.87211 | 14712 ft | 294 kts | 108° |
| 2026-04-23 12:15 | 47.32567 | 22.89940 | 14348 ft | 295 kts | 108° |
| 2026-04-23 12:15 | 47.31694 | 22.92680 | 14025 ft | 295 kts | 108° |
| 2026-04-23 12:15 | 47.30826 | 22.95404 | 13748 ft | 293 kts | 108° |
| 2026-04-23 12:15 | 47.29970 | 22.98088 | 13450 ft | 292 kts | 108° |
| 2026-04-23 12:16 | 47.29106 | 23.00792 | 13151 ft | 291 kts | 109° |
| 2026-04-23 12:16 | 47.28242 | 23.03493 | 12844 ft | 291 kts | 109° |
| 2026-04-23 12:16 | 47.27379 | 23.06188 | 12532 ft | 291 kts | 110° |
| 2026-04-23 12:16 | 47.26516 | 23.08878 | 12243 ft | 290 kts | 110° |
| 2026-04-23 12:17 | 47.25653 | 23.11563 | 11961 ft | 289 kts | 110° |
| 2026-04-23 12:17 | 47.24678 | 23.14162 | 11658 ft | 293 kts | 126° |
| 2026-04-23 12:17 | 47.23264 | 23.16337 | 11384 ft | 294 kts | 133° |
| 2026-04-23 12:17 | 47.21799 | 23.18427 | 11113 ft | 293 kts | 134° |
| 2026-04-23 12:18 | 47.20337 | 23.20509 | 10821 ft | 292 kts | 134° |
| 2026-04-23 12:18 | 47.18904 | 23.22567 | 10562 ft | 292 kts | 134° |
| 2026-04-23 12:18 | 47.17441 | 23.24682 | 10304 ft | 291 kts | 134° |
| 2026-04-23 12:18 | 47.16024 | 23.26740 | 10038 ft | 290 kts | 135° |
| 2026-04-23 12:19 | 47.14591 | 23.28827 | 9788 ft | 289 kts | 135° |
| 2026-04-23 12:19 | 47.13168 | 23.30900 | 9534 ft | 287 kts | 135° |
| 2026-04-23 12:19 | 47.11749 | 23.32967 | 9251 ft | 287 kts | 135° |
| 2026-04-23 12:19 | 47.10334 | 23.35027 | 8975 ft | 286 kts | 135° |
| 2026-04-23 12:20 | 47.08920 | 23.37083 | 8689 ft | 286 kts | 135° |
| 2026-04-23 12:20 | 47.07503 | 23.39140 | 8430 ft | 286 kts | 135° |
| 2026-04-23 12:20 | 47.06097 | 23.41179 | 8165 ft | 285 kts | 135° |
| 2026-04-23 12:20 | 47.04687 | 23.43219 | 7893 ft | 284 kts | 135° |
| 2026-04-23 12:21 | 47.03284 | 23.45250 | 7598 ft | 283 kts | 135° |
| 2026-04-23 12:21 | 47.01883 | 23.47278 | 7303 ft | 282 kts | 135° |
| 2026-04-23 12:21 | 47.00502 | 23.49274 | 7066 ft | 282 kts | 135° |
| 2026-04-23 12:21 | 46.99108 | 23.51289 | 6796 ft | 281 kts | 135° |
| 2026-04-23 12:22 | 46.97719 | 23.53295 | 6556 ft | 280 kts | 135° |
| 2026-04-23 12:22 | 46.96335 | 23.55295 | 6301 ft | 279 kts | 135° |
| 2026-04-23 12:22 | 46.94956 | 23.57278 | 6067 ft | 277 kts | 136° |
| 2026-04-23 12:22 | 46.93598 | 23.59231 | 6016 ft | 269 kts | 136° |
| 2026-04-23 12:23 | 46.92282 | 23.61130 | 5923 ft | 261 kts | 135° |
| 2026-04-23 12:23 | 46.91270 | 23.63247 | 5827 ft | 251 kts | 107° |
| 2026-04-23 12:23 | 46.90912 | 23.65670 | 5737 ft | 239 kts | 91° |
| 2026-04-23 12:23 | 46.90762 | 23.68076 | 5488 ft | 237 kts | 90° |
| 2026-04-23 12:24 | 46.90627 | 23.70471 | 5210 ft | 234 kts | 90° |
| 2026-04-23 12:24 | 46.90489 | 23.72855 | 4815 ft | 236 kts | 89° |
| 2026-04-23 12:24 | 46.90691 | 23.75185 | 4371 ft | 229 kts | 67° |
| 2026-04-23 12:24 | 46.91191 | 23.77370 | 4072 ft | 224 kts | 64° |
| 2026-04-23 12:25 | 46.91704 | 23.79524 | 3793 ft | 225 kts | 65° |
| 2026-04-23 12:25 | 46.92206 | 23.81682 | 3663 ft | 222 kts | 64° |
| 2026-04-23 12:25 | 46.92690 | 23.83804 | 3382 ft | 221 kts | 64° |
| 2026-04-23 12:25 | 46.93079 | 23.85952 | 3116 ft | 223 kts | 83° |
| 2026-04-23 12:26 | 46.92609 | 23.88130 | 2741 ft | 232 kts | 128° |
| 2026-04-23 12:26 | 46.91312 | 23.89435 | 2424 ft | 223 kts | 164° |
| 2026-04-23 12:26 | 46.89867 | 23.90113 | 2112 ft | 216 kts | 166° |
| 2026-04-23 12:26 | 46.88432 | 23.90768 | 1784 ft | 211 kts | 167° |
| 2026-04-23 12:27 | 46.87085 | 23.91394 | 1839 ft | 199 kts | 167° |
| 2026-04-23 12:27 | 46.85758 | 23.91937 | 1917 ft | 202 kts | 181° |
| 2026-04-23 12:27 | 46.84425 | 23.91460 | 2434 ft | 198 kts | 219° |
| 2026-04-23 12:27 | 46.83561 | 23.89996 | 2282 ft | 181 kts | 258° |
| 2026-04-23 12:28 | 46.83232 | 23.88346 | 2165 ft | 161 kts | 256° |
| 2026-04-23 12:28 | 46.82863 | 23.86908 | 2065 ft | 145 kts | 258° |
| 2026-04-23 12:28 | 46.82550 | 23.85528 | 1800 ft | 144 kts | 259° |
| 2026-04-23 12:28 | 46.82247 | 23.84164 | 1539 ft | 137 kts | 258° |
| 2026-04-23 12:29 | 46.81923 | 23.82645 | 1877 ft | 168 kts | 259° |
| 2026-04-23 12:29 | 46.81569 | 23.81022 | 2389 ft | 172 kts | 260° |
| 2026-04-23 12:29 | 46.81198 | 23.79332 | 2294 ft | 170 kts | 257° |
| 2026-04-23 12:29 | 46.80850 | 23.77783 | 2220 ft | 149 kts | 258° |
| 2026-04-23 12:30 | 46.80543 | 23.76446 | 2052 ft | 136 kts | 260° |
| 2026-04-23 12:30 | 46.80241 | 23.75095 | 1683 ft | 140 kts | 259° |
| 2026-04-23 12:30 | 46.79947 | 23.73790 | 1381 ft | 134 kts | 259° |
| 2026-04-23 12:30 | 46.79660 | 23.72479 | 1091 ft | 138 kts | 257° |
| 2026-04-23 12:31 | 46.79346 | 23.71105 | 1251 ft | 147 kts | 258° |
| 2026-04-23 12:31 | 46.79024 | 23.69658 | 1169 ft | 147 kts | 258° |
| 2026-04-23 12:31 | 46.78695 | 23.68303 | 1038 ft | 126 kts | 259° |
| 2026-04-23 12:31 | 46.78544 | 23.67489 | 1038 ft | 62 kts | 252° |
| 2026-04-23 12:32 | 46.78418 | 23.67175 | 1038 ft | 23 kts | 176° |
| 2026-04-23 12:32 | 46.78350 | 23.67440 | 1038 ft | 43 kts | 73° |
| 2026-04-23 12:32 | 46.78435 | 23.68015 | 1037 ft | 65 kts | 79° |
| 2026-04-23 12:32 | 46.78485 | 23.68387 | 1039 ft | 45 kts | 78° |
| 2026-04-23 12:33 | 46.78503 | 23.68628 | 1039 ft | 11 kts | 124° |
| 2026-04-23 12:33 | 46.78497 | 23.68636 | 1040 ft | 1 kts | 143° |
| 2026-04-23 12:33 | 46.78486 | 23.68644 | 1039 ft | 0 kts | 156° |
| 2026-04-23 12:34 | 46.78424 | 23.68668 | 1038 ft | 24 kts | 175° |
| 2026-04-23 12:34 | 46.78308 | 23.68695 | 1038 ft | 0 kts | 165° |